sensor_id;sensor_type;location;lat;lon;timestamp;temperature;humidity
21123;DHT22;10719;48.130;11.630;2023-03-11T00:02:06;2.90;99.90
21123;DHT22;10719;48.130;11.630;2023-03-11T00:04:31;2.80;99.90
21123;DHT22;10719;48.130;11.630;2023-03-11T00:06:57;2.80;99.90
21123;DHT22;10719;48.130;11.630;2023-03-11T00:09:23;2.70;99.90
21123;DHT22;10719;48.130;11.630;2023-03-11T00:11:48;2.60;99.90
21123;DHT22;10719;48.130;11.630;2023-03-11T00:14:14;2.60;99.90
21123;DHT22;10719;48.130;11.630;2023-03-11T00:16:39;2.50;99.90
21123;DHT22;10719;48.130;11.630;2023-03-11T00:19:05;2.50;99.90
21123;DHT22;10719;48.130;11.630;2023-03-11T00:21:30;2.50;99.90
21123;DHT22;10719;48.130;11.630;2023-03-11T00:23:56;2.40;99.90
21123;DHT22;10719;48.130;11.630;2023-03-11T00:26:25;2.40;99.90
21123;DHT22;10719;48.130;11.630;2023-03-11T00:28:51;2.40;99.90
21123;DHT22;10719;48.130;11.630;2023-03-11T00:31:17;2.40;99.90
21123;DHT22;10719;48.130;11.630;2023-03-11T00:33:43;2.40;99.90
21123;DHT22;10719;48.130;11.630;2023-03-11T00:36:22;2.30;99.90
21123;DHT22;10719;48.130;11.630;2023-03-11T00:38:49;2.30;99.90
21123;DHT22;10719;48.130;11.630;2023-03-11T00:41:14;2.30;99.90
21123;DHT22;10719;48.130;11.630;2023-03-11T00:43:40;2.30;99.90
21123;DHT22;10719;48.130;11.630;2023-03-11T00:46:05;2.30;99.90
21123;DHT22;10719;48.130;11.630;2023-03-11T00:48:31;2.20;99.90
21123;DHT22;10719;48.130;11.630;2023-03-11T00:50:57;2.20;99.90
21123;DHT22;10719;48.130;11.630;2023-03-11T00:53:22;2.20;99.90
21123;DHT22;10719;48.130;11.630;2023-03-11T00:55:48;2.20;99.90
21123;DHT22;10719;48.130;11.630;2023-03-11T00:58:13;2.20;99.90
21123;DHT22;10719;48.130;11.630;2023-03-11T01:00:39;2.20;99.90
21123;DHT22;10719;48.130;11.630;2023-03-11T01:03:05;2.10;99.90
21123;DHT22;10719;48.130;11.630;2023-03-11T01:05:32;2.20;99.90
21123;DHT22;10719;48.130;11.630;2023-03-11T01:07:58;2.10;99.90
21123;DHT22;10719;48.130;11.630;2023-03-11T01:10:24;2.20;99.90
21123;DHT22;10719;48.130;11.630;2023-03-11T01:12:50;2.10;99.90
21123;DHT22;10719;48.130;11.630;2023-03-11T01:15:25;2.10;99.90
21123;DHT22;10719;48.130;11.630;2023-03-11T01:17:51;2.10;99.90
21123;DHT22;10719;48.130;11.630;2023-03-11T01:20:17;2.10;99.90
21123;DHT22;10719;48.130;11.630;2023-03-11T01:22:43;2.10;99.90
21123;DHT22;10719;48.130;11.630;2023-03-11T01:25:11;2.10;99.90
21123;DHT22;10719;48.130;11.630;2023-03-11T01:27:37;2.10;99.90
21123;DHT22;10719;48.130;11.630;2023-03-11T01:30:03;2.10;99.90
21123;DHT22;10719;48.130;11.630;2023-03-11T01:32:29;2.00;99.90
21123;DHT22;10719;48.130;11.630;2023-03-11T01:34:55;1.90;99.90
21123;DHT22;10719;48.130;11.630;2023-03-11T01:37:20;2.00;99.90
21123;DHT22;10719;48.130;11.630;2023-03-11T01:39:46;1.90;99.90
21123;DHT22;10719;48.130;11.630;2023-03-11T01:42:12;2.00;99.90
21123;DHT22;10719;48.130;11.630;2023-03-11T01:44:38;2.00;99.90
21123;DHT22;10719;48.130;11.630;2023-03-11T01:49:29;2.00;99.90
21123;DHT22;10719;48.130;11.630;2023-03-11T01:51:59;1.90;99.90
21123;DHT22;10719;48.130;11.630;2023-03-11T01:54:31;1.90;99.90
21123;DHT22;10719;48.130;11.630;2023-03-11T01:56:58;1.90;99.90
21123;DHT22;10719;48.130;11.630;2023-03-11T01:59:28;1.80;99.90
21123;DHT22;10719;48.130;11.630;2023-03-11T02:04:33;1.80;99.90
21123;DHT22;10719;48.130;11.630;2023-03-11T02:07:00;1.80;99.90
21123;DHT22;10719;48.130;11.630;2023-03-11T02:09:26;1.80;99.90
21123;DHT22;10719;48.130;11.630;2023-03-11T02:11:52;1.80;99.90
21123;DHT22;10719;48.130;11.630;2023-03-11T02:14:18;1.70;99.90
21123;DHT22;10719;48.130;11.630;2023-03-11T02:16:44;1.70;99.90
21123;DHT22;10719;48.130;11.630;2023-03-11T02:22:10;1.70;99.90
21123;DHT22;10719;48.130;11.630;2023-03-11T02:24:45;1.70;99.90
21123;DHT22;10719;48.130;11.630;2023-03-11T02:27:13;1.60;99.90
21123;DHT22;10719;48.130;11.630;2023-03-11T02:29:41;1.60;99.90
21123;DHT22;10719;48.130;11.630;2023-03-11T02:32:08;1.50;99.90
21123;DHT22;10719;48.130;11.630;2023-03-11T02:34:37;1.60;99.90
21123;DHT22;10719;48.130;11.630;2023-03-11T02:37:05;1.50;99.90
21123;DHT22;10719;48.130;11.630;2023-03-11T02:39:46;1.50;99.90
21123;DHT22;10719;48.130;11.630;2023-03-11T02:42:25;1.50;99.90
21123;DHT22;10719;48.130;11.630;2023-03-11T02:44:59;1.50;99.90
21123;DHT22;10719;48.130;11.630;2023-03-11T02:47:26;1.50;99.90
21123;DHT22;10719;48.130;11.630;2023-03-11T02:49:53;1.40;99.90
21123;DHT22;10719;48.130;11.630;2023-03-11T02:52:19;1.40;99.90
21123;DHT22;10719;48.130;11.630;2023-03-11T02:54:44;1.40;99.90
21123;DHT22;10719;48.130;11.630;2023-03-11T02:57:10;1.40;99.90
21123;DHT22;10719;48.130;11.630;2023-03-11T02:59:36;1.40;99.90
21123;DHT22;10719;48.130;11.630;2023-03-11T03:02:01;1.30;99.90
21123;DHT22;10719;48.130;11.630;2023-03-11T03:04:27;1.30;99.90
21123;DHT22;10719;48.130;11.630;2023-03-11T03:06:52;1.40;99.90
21123;DHT22;10719;48.130;11.630;2023-03-11T03:09:18;1.30;99.90
21123;DHT22;10719;48.130;11.630;2023-03-11T03:11:44;1.30;99.90
21123;DHT22;10719;48.130;11.630;2023-03-11T03:14:09;1.30;99.90
21123;DHT22;10719;48.130;11.630;2023-03-11T03:16:35;1.30;99.90
21123;DHT22;10719;48.130;11.630;2023-03-11T03:19:00;1.30;99.90
21123;DHT22;10719;48.130;11.630;2023-03-11T03:21:26;1.20;99.90
21123;DHT22;10719;48.130;11.630;2023-03-11T03:23:51;1.30;99.90
21123;DHT22;10719;48.130;11.630;2023-03-11T03:26:17;1.30;99.90
21123;DHT22;10719;48.130;11.630;2023-03-11T03:28:43;1.20;99.90
21123;DHT22;10719;48.130;11.630;2023-03-11T03:31:09;1.20;99.90
21123;DHT22;10719;48.130;11.630;2023-03-11T03:33:35;1.20;99.90
21123;DHT22;10719;48.130;11.630;2023-03-11T03:36:05;1.20;99.90
21123;DHT22;10719;48.130;11.630;2023-03-11T03:38:32;1.20;99.90
21123;DHT22;10719;48.130;11.630;2023-03-11T03:40:57;1.20;99.90
21123;DHT22;10719;48.130;11.630;2023-03-11T03:43:23;1.20;99.90
21123;DHT22;10719;48.130;11.630;2023-03-11T03:46:00;1.10;99.90
21123;DHT22;10719;48.130;11.630;2023-03-11T03:48:26;1.10;99.90
21123;DHT22;10719;48.130;11.630;2023-03-11T03:50:52;1.20;99.90
21123;DHT22;10719;48.130;11.630;2023-03-11T03:53:17;1.20;99.90
21123;DHT22;10719;48.130;11.630;2023-03-11T03:55:43;1.10;99.90
21123;DHT22;10719;48.130;11.630;2023-03-11T03:58:08;1.10;99.90
21123;DHT22;10719;48.130;11.630;2023-03-11T04:00:35;1.10;99.90
21123;DHT22;10719;48.130;11.630;2023-03-11T04:03:01;1.00;99.90
21123;DHT22;10719;48.130;11.630;2023-03-11T04:05:26;1.10;99.90
21123;DHT22;10719;48.130;11.630;2023-03-11T04:07:53;1.10;99.90
21123;DHT22;10719;48.130;11.630;2023-03-11T04:10:19;1.00;99.90
21123;DHT22;10719;48.130;11.630;2023-03-11T04:12:44;0.90;99.90
21123;DHT22;10719;48.130;11.630;2023-03-11T04:15:10;1.00;99.90
21123;DHT22;10719;48.130;11.630;2023-03-11T04:17:37;1.00;99.90
21123;DHT22;10719;48.130;11.630;2023-03-11T04:20:03;0.90;99.90
21123;DHT22;10719;48.130;11.630;2023-03-11T04:22:32;1.00;99.90
21123;DHT22;10719;48.130;11.630;2023-03-11T04:24:58;1.00;99.90
21123;DHT22;10719;48.130;11.630;2023-03-11T04:27:23;0.90;99.90
21123;DHT22;10719;48.130;11.630;2023-03-11T04:29:49;1.00;99.90
21123;DHT22;10719;48.130;11.630;2023-03-11T04:32:14;0.90;99.90
21123;DHT22;10719;48.130;11.630;2023-03-11T04:34:40;0.90;99.90
21123;DHT22;10719;48.130;11.630;2023-03-11T04:37:06;0.90;99.90
21123;DHT22;10719;48.130;11.630;2023-03-11T04:39:32;0.90;99.90
21123;DHT22;10719;48.130;11.630;2023-03-11T04:41:57;0.80;99.90
21123;DHT22;10719;48.130;11.630;2023-03-11T04:44:23;0.80;99.90
21123;DHT22;10719;48.130;11.630;2023-03-11T04:46:49;0.80;99.90
21123;DHT22;10719;48.130;11.630;2023-03-11T04:49:14;0.90;99.90
21123;DHT22;10719;48.130;11.630;2023-03-11T04:51:40;0.90;99.90
21123;DHT22;10719;48.130;11.630;2023-03-11T04:54:06;0.90;99.90
21123;DHT22;10719;48.130;11.630;2023-03-11T04:56:31;0.90;99.90
21123;DHT22;10719;48.130;11.630;2023-03-11T04:58:57;1.00;99.90
21123;DHT22;10719;48.130;11.630;2023-03-11T05:01:23;1.00;99.90
21123;DHT22;10719;48.130;11.630;2023-03-11T05:03:48;1.00;99.90
21123;DHT22;10719;48.130;11.630;2023-03-11T05:06:14;1.10;99.90
21123;DHT22;10719;48.130;11.630;2023-03-11T05:08:40;1.10;99.90
21123;DHT22;10719;48.130;11.630;2023-03-11T05:11:05;1.10;99.90
21123;DHT22;10719;48.130;11.630;2023-03-11T05:13:31;1.20;99.90
21123;DHT22;10719;48.130;11.630;2023-03-11T05:15:57;1.20;99.90
21123;DHT22;10719;48.130;11.630;2023-03-11T05:18:23;1.20;99.90
21123;DHT22;10719;48.130;11.630;2023-03-11T05:20:48;1.20;99.90
21123;DHT22;10719;48.130;11.630;2023-03-11T05:23:14;1.20;99.90
21123;DHT22;10719;48.130;11.630;2023-03-11T05:25:39;1.20;99.90
21123;DHT22;10719;48.130;11.630;2023-03-11T05:28:05;1.20;99.90
21123;DHT22;10719;48.130;11.630;2023-03-11T05:30:31;1.20;99.90
21123;DHT22;10719;48.130;11.630;2023-03-11T05:32:56;1.20;99.90
21123;DHT22;10719;48.130;11.630;2023-03-11T05:35:22;1.20;99.90
21123;DHT22;10719;48.130;11.630;2023-03-11T05:37:47;1.20;99.90
21123;DHT22;10719;48.130;11.630;2023-03-11T05:40:14;1.10;99.90
21123;DHT22;10719;48.130;11.630;2023-03-11T05:42:40;1.10;99.90
21123;DHT22;10719;48.130;11.630;2023-03-11T05:45:06;1.10;99.90
21123;DHT22;10719;48.130;11.630;2023-03-11T05:47:32;1.10;99.90
21123;DHT22;10719;48.130;11.630;2023-03-11T05:49:58;1.10;99.90
21123;DHT22;10719;48.130;11.630;2023-03-11T05:52:23;1.10;99.90
21123;DHT22;10719;48.130;11.630;2023-03-11T05:54:49;1.10;99.90
21123;DHT22;10719;48.130;11.630;2023-03-11T05:57:16;1.00;99.90
21123;DHT22;10719;48.130;11.630;2023-03-11T05:59:42;1.00;99.90
21123;DHT22;10719;48.130;11.630;2023-03-11T06:02:07;1.00;99.90
21123;DHT22;10719;48.130;11.630;2023-03-11T06:04:33;1.00;99.90
21123;DHT22;10719;48.130;11.630;2023-03-11T06:06:59;0.90;99.90
21123;DHT22;10719;48.130;11.630;2023-03-11T06:09:24;0.90;99.90
21123;DHT22;10719;48.130;11.630;2023-03-11T06:11:50;1.00;99.90
21123;DHT22;10719;48.130;11.630;2023-03-11T06:14:16;0.90;99.90
21123;DHT22;10719;48.130;11.630;2023-03-11T06:16:41;1.00;99.90
21123;DHT22;10719;48.130;11.630;2023-03-11T06:19:07;0.80;99.90
21123;DHT22;10719;48.130;11.630;2023-03-11T06:21:33;0.80;99.90
21123;DHT22;10719;48.130;11.630;2023-03-11T06:23:58;0.80;99.90
21123;DHT22;10719;48.130;11.630;2023-03-11T06:26:24;0.80;99.90
21123;DHT22;10719;48.130;11.630;2023-03-11T06:28:51;0.90;99.90
21123;DHT22;10719;48.130;11.630;2023-03-11T06:31:22;0.80;99.90
21123;DHT22;10719;48.130;11.630;2023-03-11T06:33:49;0.80;99.90
21123;DHT22;10719;48.130;11.630;2023-03-11T06:36:17;0.80;99.90
21123;DHT22;10719;48.130;11.630;2023-03-11T06:38:43;0.90;99.90
21123;DHT22;10719;48.130;11.630;2023-03-11T06:41:10;0.80;99.90
21123;DHT22;10719;48.130;11.630;2023-03-11T06:43:36;0.80;99.90
21123;DHT22;10719;48.130;11.630;2023-03-11T06:46:08;0.80;99.90
21123;DHT22;10719;48.130;11.630;2023-03-11T06:48:34;0.80;99.90
21123;DHT22;10719;48.130;11.630;2023-03-11T06:51:00;0.70;99.90
21123;DHT22;10719;48.130;11.630;2023-03-11T06:53:27;0.60;99.90
21123;DHT22;10719;48.130;11.630;2023-03-11T06:56:11;0.60;99.90
21123;DHT22;10719;48.130;11.630;2023-03-11T06:58:38;0.80;99.90
21123;DHT22;10719;48.130;11.630;2023-03-11T07:03:34;0.70;99.90
21123;DHT22;10719;48.130;11.630;2023-03-11T07:06:00;0.80;99.90
21123;DHT22;10719;48.130;11.630;2023-03-11T07:08:26;0.90;99.90
21123;DHT22;10719;48.130;11.630;2023-03-11T07:13:28;0.60;99.90
21123;DHT22;10719;48.130;11.630;2023-03-11T07:16:02;0.50;99.90
21123;DHT22;10719;48.130;11.630;2023-03-11T07:18:29;0.50;99.90
21123;DHT22;10719;48.130;11.630;2023-03-11T07:20:55;0.60;99.90
21123;DHT22;10719;48.130;11.630;2023-03-11T07:23:21;0.70;99.90
21123;DHT22;10719;48.130;11.630;2023-03-11T07:25:47;0.80;99.90
21123;DHT22;10719;48.130;11.630;2023-03-11T07:28:13;0.90;99.90
21123;DHT22;10719;48.130;11.630;2023-03-11T07:30:39;1.00;99.90
21123;DHT22;10719;48.130;11.630;2023-03-11T07:33:05;1.00;99.90
21123;DHT22;10719;48.130;11.630;2023-03-11T07:35:30;0.80;99.90
21123;DHT22;10719;48.130;11.630;2023-03-11T07:37:56;0.70;99.90
21123;DHT22;10719;48.130;11.630;2023-03-11T07:40:22;0.50;99.90
21123;DHT22;10719;48.130;11.630;2023-03-11T07:42:48;0.50;99.90
21123;DHT22;10719;48.130;11.630;2023-03-11T07:45:13;0.40;99.90
21123;DHT22;10719;48.130;11.630;2023-03-11T07:47:39;0.50;99.90
21123;DHT22;10719;48.130;11.630;2023-03-11T07:50:05;0.50;99.90
21123;DHT22;10719;48.130;11.630;2023-03-11T07:52:31;0.60;99.90
21123;DHT22;10719;48.130;11.630;2023-03-11T07:54:57;0.70;99.90
21123;DHT22;10719;48.130;11.630;2023-03-11T07:57:23;0.60;99.90
21123;DHT22;10719;48.130;11.630;2023-03-11T07:59:49;0.70;99.90
21123;DHT22;10719;48.130;11.630;2023-03-11T08:02:14;0.70;99.90
21123;DHT22;10719;48.130;11.630;2023-03-11T08:04:40;0.80;99.90
21123;DHT22;10719;48.130;11.630;2023-03-11T08:07:05;0.90;99.90
21123;DHT22;10719;48.130;11.630;2023-03-11T08:09:34;1.10;99.90
21123;DHT22;10719;48.130;11.630;2023-03-11T08:12:01;1.10;99.90
21123;DHT22;10719;48.130;11.630;2023-03-11T08:14:26;1.10;99.90
21123;DHT22;10719;48.130;11.630;2023-03-11T08:16:52;1.20;99.90
21123;DHT22;10719;48.130;11.630;2023-03-11T08:19:18;1.20;99.90
21123;DHT22;10719;48.130;11.630;2023-03-11T08:21:44;1.20;99.90
21123;DHT22;10719;48.130;11.630;2023-03-11T08:24:12;1.30;99.90
21123;DHT22;10719;48.130;11.630;2023-03-11T08:26:39;1.40;99.90
21123;DHT22;10719;48.130;11.630;2023-03-11T08:29:06;1.50;99.90
21123;DHT22;10719;48.130;11.630;2023-03-11T08:31:33;1.50;99.90
21123;DHT22;10719;48.130;11.630;2023-03-11T08:34:08;1.70;99.90
21123;DHT22;10719;48.130;11.630;2023-03-11T08:36:33;1.60;99.90
21123;DHT22;10719;48.130;11.630;2023-03-11T08:38:59;1.50;99.90
21123;DHT22;10719;48.130;11.630;2023-03-11T08:41:25;1.70;99.90
21123;DHT22;10719;48.130;11.630;2023-03-11T08:43:51;1.90;99.90
21123;DHT22;10719;48.130;11.630;2023-03-11T08:46:24;1.80;99.90
21123;DHT22;10719;48.130;11.630;2023-03-11T08:48:51;1.80;99.90
21123;DHT22;10719;48.130;11.630;2023-03-11T08:51:16;1.80;99.90
21123;DHT22;10719;48.130;11.630;2023-03-11T08:53:42;2.00;99.90
21123;DHT22;10719;48.130;11.630;2023-03-11T08:56:08;2.10;99.90
21123;DHT22;10719;48.130;11.630;2023-03-11T08:58:34;2.00;99.90
21123;DHT22;10719;48.130;11.630;2023-03-11T09:01:00;2.40;99.90
21123;DHT22;10719;48.130;11.630;2023-03-11T09:03:26;2.20;99.90
21123;DHT22;10719;48.130;11.630;2023-03-11T09:05:59;2.30;99.90
21123;DHT22;10719;48.130;11.630;2023-03-11T09:08:26;2.40;99.90
21123;DHT22;10719;48.130;11.630;2023-03-11T09:10:52;2.40;99.90
21123;DHT22;10719;48.130;11.630;2023-03-11T09:13:18;2.40;99.90
21123;DHT22;10719;48.130;11.630;2023-03-11T09:15:43;2.20;99.90
21123;DHT22;10719;48.130;11.630;2023-03-11T09:18:15;2.30;99.90
21123;DHT22;10719;48.130;11.630;2023-03-11T09:20:42;2.20;99.90
21123;DHT22;10719;48.130;11.630;2023-03-11T09:23:09;2.20;99.90
21123;DHT22;10719;48.130;11.630;2023-03-11T09:25:35;2.10;99.90
21123;DHT22;10719;48.130;11.630;2023-03-11T09:28:00;2.30;99.90
21123;DHT22;10719;48.130;11.630;2023-03-11T09:30:26;2.40;99.90
21123;DHT22;10719;48.130;11.630;2023-03-11T09:32:52;2.60;99.90
21123;DHT22;10719;48.130;11.630;2023-03-11T09:35:17;2.50;99.90
21123;DHT22;10719;48.130;11.630;2023-03-11T09:37:43;2.60;99.90
21123;DHT22;10719;48.130;11.630;2023-03-11T09:40:18;3.00;99.90
21123;DHT22;10719;48.130;11.630;2023-03-11T09:45:25;5.90;99.90
21123;DHT22;10719;48.130;11.630;2023-03-11T09:51:39;6.60;99.90
21123;DHT22;10719;48.130;11.630;2023-03-11T09:53:45;7.60;99.90
21123;DHT22;10719;48.130;11.630;2023-03-11T09:56:19;9.50;99.90
21123;DHT22;10719;48.130;11.630;2023-03-11T09:58:49;9.80;99.90
21123;DHT22;10719;48.130;11.630;2023-03-11T10:01:23;11.00;99.90
21123;DHT22;10719;48.130;11.630;2023-03-11T10:03:51;10.00;99.90
21123;DHT22;10719;48.130;11.630;2023-03-11T10:06:25;9.40;99.90
21123;DHT22;10719;48.130;11.630;2023-03-11T10:16:58;10.60;99.90
21123;DHT22;10719;48.130;11.630;2023-03-11T10:22:30;10.50;99.90
21123;DHT22;10719;48.130;11.630;2023-03-11T10:25:06;7.80;99.90
21123;DHT22;10719;48.130;11.630;2023-03-11T10:27:48;8.50;99.90
21123;DHT22;10719;48.130;11.630;2023-03-11T10:30:50;8.10;99.90
21123;DHT22;10719;48.130;11.630;2023-03-11T10:33:20;7.60;99.90
21123;DHT22;10719;48.130;11.630;2023-03-11T10:35:51;7.20;99.90
21123;DHT22;10719;48.130;11.630;2023-03-11T10:40:47;7.70;99.90
21123;DHT22;10719;48.130;11.630;2023-03-11T10:43:26;9.50;99.90
21123;DHT22;10719;48.130;11.630;2023-03-11T10:45:53;11.00;99.90
21123;DHT22;10719;48.130;11.630;2023-03-11T10:48:20;10.80;99.90
21123;DHT22;10719;48.130;11.630;2023-03-11T10:51:00;10.80;99.90
21123;DHT22;10719;48.130;11.630;2023-03-11T10:53:27;9.90;99.90
21123;DHT22;10719;48.130;11.630;2023-03-11T10:55:56;10.50;99.90
21123;DHT22;10719;48.130;11.630;2023-03-11T10:58:25;11.80;99.90
21123;DHT22;10719;48.130;11.630;2023-03-11T11:01:10;10.50;99.90
21123;DHT22;10719;48.130;11.630;2023-03-11T11:03:41;10.90;99.90
21123;DHT22;10719;48.130;11.630;2023-03-11T11:06:33;10.90;99.90
21123;DHT22;10719;48.130;11.630;2023-03-11T11:09:20;11.00;99.90
21123;DHT22;10719;48.130;11.630;2023-03-11T11:12:13;8.10;99.90
21123;DHT22;10719;48.130;11.630;2023-03-11T11:14:46;8.40;99.90
21123;DHT22;10719;48.130;11.630;2023-03-11T11:17:23;7.90;99.90
21123;DHT22;10719;48.130;11.630;2023-03-11T11:19:52;8.60;99.90
21123;DHT22;10719;48.130;11.630;2023-03-11T11:22:20;9.20;99.90
21123;DHT22;10719;48.130;11.630;2023-03-11T11:24:47;8.50;99.90
21123;DHT22;10719;48.130;11.630;2023-03-11T11:27:19;9.50;99.90
21123;DHT22;10719;48.130;11.630;2023-03-11T11:29:46;9.40;99.90
21123;DHT22;10719;48.130;11.630;2023-03-11T11:32:19;8.50;99.90
21123;DHT22;10719;48.130;11.630;2023-03-11T11:35:00;7.60;99.90
21123;DHT22;10719;48.130;11.630;2023-03-11T11:37:30;7.50;99.90
21123;DHT22;10719;48.130;11.630;2023-03-11T11:40:05;7.40;99.90
21123;DHT22;10719;48.130;11.630;2023-03-11T11:42:38;8.10;99.90
21123;DHT22;10719;48.130;11.630;2023-03-11T11:45:13;8.40;99.90
21123;DHT22;10719;48.130;11.630;2023-03-11T11:47:43;8.00;99.90
21123;DHT22;10719;48.130;11.630;2023-03-11T11:50:34;9.30;99.90
21123;DHT22;10719;48.130;11.630;2023-03-11T11:53:14;10.70;99.90
21123;DHT22;10719;48.130;11.630;2023-03-11T11:55:48;10.40;99.90
21123;DHT22;10719;48.130;11.630;2023-03-11T11:58:14;10.10;99.90
21123;DHT22;10719;48.130;11.630;2023-03-11T12:06:56;9.90;99.90
21123;DHT22;10719;48.130;11.630;2023-03-11T12:12:35;10.10;99.90
21123;DHT22;10719;48.130;11.630;2023-03-11T12:18:04;10.80;99.90
21123;DHT22;10719;48.130;11.630;2023-03-11T12:20:53;11.70;99.90
21123;DHT22;10719;48.130;11.630;2023-03-11T12:26:22;11.00;99.90
21123;DHT22;10719;48.130;11.630;2023-03-11T12:28:56;11.70;99.40
21123;DHT22;10719;48.130;11.630;2023-03-11T12:31:26;10.80;99.90
21123;DHT22;10719;48.130;11.630;2023-03-11T12:33:58;10.20;99.90
21123;DHT22;10719;48.130;11.630;2023-03-11T12:36:27;11.30;99.90
21123;DHT22;10719;48.130;11.630;2023-03-11T12:38:53;12.00;99.90
21123;DHT22;10719;48.130;11.630;2023-03-11T12:41:27;12.70;99.90
21123;DHT22;10719;48.130;11.630;2023-03-11T12:44:00;12.10;99.90
21123;DHT22;10719;48.130;11.630;2023-03-11T12:49:23;13.20;98.90
21123;DHT22;10719;48.130;11.630;2023-03-11T12:54:31;13.40;97.10
21123;DHT22;10719;48.130;11.630;2023-03-11T12:57:31;13.20;98.60
21123;DHT22;10719;48.130;11.630;2023-03-11T13:05:53;11.80;99.50
21123;DHT22;10719;48.130;11.630;2023-03-11T13:08:42;12.30;98.00
21123;DHT22;10719;48.130;11.630;2023-03-11T13:16:38;13.40;98.60
21123;DHT22;10719;48.130;11.630;2023-03-11T13:21:55;14.10;96.60
21123;DHT22;10719;48.130;11.630;2023-03-11T13:32:57;12.70;97.00
21123;DHT22;10719;48.130;11.630;2023-03-11T13:35:58;12.50;98.40
21123;DHT22;10719;48.130;11.630;2023-03-11T13:40:54;12.50;98.00
21123;DHT22;10719;48.130;11.630;2023-03-11T13:43:24;11.20;99.80
21123;DHT22;10719;48.130;11.630;2023-03-11T13:46:00;11.50;99.20
21123;DHT22;10719;48.130;11.630;2023-03-11T13:48:40;12.20;99.00
21123;DHT22;10719;48.130;11.630;2023-03-11T13:51:16;12.20;99.80
21123;DHT22;10719;48.130;11.630;2023-03-11T13:53:58;11.30;98.40
21123;DHT22;10719;48.130;11.630;2023-03-11T13:56:28;10.90;99.90
21123;DHT22;10719;48.130;11.630;2023-03-11T13:59:17;10.10;99.90
21123;DHT22;10719;48.130;11.630;2023-03-11T14:01:58;10.50;99.90
21123;DHT22;10719;48.130;11.630;2023-03-11T14:04:30;10.10;99.50
21123;DHT22;10719;48.130;11.630;2023-03-11T14:06:56;10.70;99.90
21123;DHT22;10719;48.130;11.630;2023-03-11T14:09:24;10.40;99.80
21123;DHT22;10719;48.130;11.630;2023-03-11T14:11:53;9.80;99.90
21123;DHT22;10719;48.130;11.630;2023-03-11T14:14:46;9.40;99.90
21123;DHT22;10719;48.130;11.630;2023-03-11T14:17:17;8.90;99.90
21123;DHT22;10719;48.130;11.630;2023-03-11T14:20:22;8.80;99.90
21123;DHT22;10719;48.130;11.630;2023-03-11T14:22:52;8.60;99.90
21123;DHT22;10719;48.130;11.630;2023-03-11T14:25:21;8.40;99.90
21123;DHT22;10719;48.130;11.630;2023-03-11T14:27:54;8.40;99.90
21123;DHT22;10719;48.130;11.630;2023-03-11T14:30:26;8.20;99.90
21123;DHT22;10719;48.130;11.630;2023-03-11T14:33:17;6.90;99.90
21123;DHT22;10719;48.130;11.630;2023-03-11T14:36:01;7.00;99.90
21123;DHT22;10719;48.130;11.630;2023-03-11T14:38:29;6.30;99.90
21123;DHT22;10719;48.130;11.630;2023-03-11T14:41:00;6.50;99.90
21123;DHT22;10719;48.130;11.630;2023-03-11T14:43:33;6.50;99.90
21123;DHT22;10719;48.130;11.630;2023-03-11T14:46:00;6.70;99.90
21123;DHT22;10719;48.130;11.630;2023-03-11T14:48:34;6.30;99.90
21123;DHT22;10719;48.130;11.630;2023-03-11T14:51:03;6.00;99.90
21123;DHT22;10719;48.130;11.630;2023-03-11T14:53:43;6.10;99.90
21123;DHT22;10719;48.130;11.630;2023-03-11T14:56:15;6.40;99.90
21123;DHT22;10719;48.130;11.630;2023-03-11T14:58:46;5.90;99.90
21123;DHT22;10719;48.130;11.630;2023-03-11T15:01:18;5.80;99.90
21123;DHT22;10719;48.130;11.630;2023-03-11T15:03:50;5.70;99.90
21123;DHT22;10719;48.130;11.630;2023-03-11T15:06:19;6.00;99.90
21123;DHT22;10719;48.130;11.630;2023-03-11T15:08:51;5.90;99.90
21123;DHT22;10719;48.130;11.630;2023-03-11T15:11:23;6.10;99.90
21123;DHT22;10719;48.130;11.630;2023-03-11T15:13:50;6.00;99.90
21123;DHT22;10719;48.130;11.630;2023-03-11T15:16:24;6.00;99.90
21123;DHT22;10719;48.130;11.630;2023-03-11T15:18:52;6.00;99.90
21123;DHT22;10719;48.130;11.630;2023-03-11T15:21:21;6.20;99.90
21123;DHT22;10719;48.130;11.630;2023-03-11T15:23:50;6.40;99.90
21123;DHT22;10719;48.130;11.630;2023-03-11T15:26:26;6.50;99.90
21123;DHT22;10719;48.130;11.630;2023-03-11T15:29:03;6.80;99.90
21123;DHT22;10719;48.130;11.630;2023-03-11T15:31:37;6.40;99.90
21123;DHT22;10719;48.130;11.630;2023-03-11T15:36:54;5.90;99.90
21123;DHT22;10719;48.130;11.630;2023-03-11T15:39:39;5.80;99.90
21123;DHT22;10719;48.130;11.630;2023-03-11T15:44:32;5.50;99.90
21123;DHT22;10719;48.130;11.630;2023-03-11T15:46:58;5.30;99.90
21123;DHT22;10719;48.130;11.630;2023-03-11T15:49:26;5.20;99.90
21123;DHT22;10719;48.130;11.630;2023-03-11T15:51:52;5.20;99.90
21123;DHT22;10719;48.130;11.630;2023-03-11T15:54:17;4.80;99.90
21123;DHT22;10719;48.130;11.630;2023-03-11T15:56:43;4.70;99.90
21123;DHT22;10719;48.130;11.630;2023-03-11T15:59:14;4.60;99.90
21123;DHT22;10719;48.130;11.630;2023-03-11T16:01:40;4.60;99.90
21123;DHT22;10719;48.130;11.630;2023-03-11T16:04:15;4.40;99.90
21123;DHT22;10719;48.130;11.630;2023-03-11T16:06:42;4.50;99.90
21123;DHT22;10719;48.130;11.630;2023-03-11T16:09:08;4.30;99.90
21123;DHT22;10719;48.130;11.630;2023-03-11T16:11:34;4.30;99.90
21123;DHT22;10719;48.130;11.630;2023-03-11T16:14:00;4.30;99.90
21123;DHT22;10719;48.130;11.630;2023-03-11T16:16:26;4.20;99.90
21123;DHT22;10719;48.130;11.630;2023-03-11T16:18:52;4.40;99.90
21123;DHT22;10719;48.130;11.630;2023-03-11T16:21:19;4.30;99.90
21123;DHT22;10719;48.130;11.630;2023-03-11T16:23:46;4.20;99.90
21123;DHT22;10719;48.130;11.630;2023-03-11T16:26:13;4.30;99.90
21123;DHT22;10719;48.130;11.630;2023-03-11T16:28:39;4.20;99.90
21123;DHT22;10719;48.130;11.630;2023-03-11T16:31:05;4.00;99.90
21123;DHT22;10719;48.130;11.630;2023-03-11T16:33:32;3.90;99.90
21123;DHT22;10719;48.130;11.630;2023-03-11T16:35:58;3.80;99.90
21123;DHT22;10719;48.130;11.630;2023-03-11T16:38:23;3.80;99.90
21123;DHT22;10719;48.130;11.630;2023-03-11T16:40:58;3.80;99.90
21123;DHT22;10719;48.130;11.630;2023-03-11T16:43:24;3.70;99.90
21123;DHT22;10719;48.130;11.630;2023-03-11T16:45:50;3.60;99.90
21123;DHT22;10719;48.130;11.630;2023-03-11T16:48:18;3.60;99.90
21123;DHT22;10719;48.130;11.630;2023-03-11T16:50:43;3.50;99.90
21123;DHT22;10719;48.130;11.630;2023-03-11T16:53:09;3.50;99.90
21123;DHT22;10719;48.130;11.630;2023-03-11T16:55:34;3.50;99.90
21123;DHT22;10719;48.130;11.630;2023-03-11T16:58:00;3.40;99.90
21123;DHT22;10719;48.130;11.630;2023-03-11T17:00:26;3.30;99.90
21123;DHT22;10719;48.130;11.630;2023-03-11T17:02:52;3.50;99.90
21123;DHT22;10719;48.130;11.630;2023-03-11T17:05:18;3.40;99.90